Terminal Aerodrome Forecast
Issued by NWS Wilmington, NC

Home | Current Version | Previous Version | Text Only | Print | Product List | Glossary On
Versions: 1 2 3 4 5 6 7 8 9 10 11 12 13 14 15 16 17 18 19 20
915
FTUS42 KILM 290541
TAFMYR
TAF
KMYR 290541Z 2906/3006 20012KT P6SM SCT004 BKN020
      TEMPO 2906/2910 OVC004
     FM291400 18017G23KT P6SM SCT020
     FM300000 19013KT P6SM SCT020
     FM300400 17009KT P6SM OVC015
      AMD LTD TO CLD VIS AND WIND TIL 291100=

USA.gov is the U.S. government's official web portal to all federal, state and local government web resources and services.